Map

Track Data

SID SEASON NUMBER BASIN SUBBASIN NAME ISO_TIME NATURE LAT LON WMO_WIND WMO_PRES WMO_AGENCY TRACK_TYPE DIST2LAND LANDFALL IFLAG USA_AGENCY USA_ATCF_ID USA_LAT USA_LON USA_RECORD USA_STATUS USA_WIND USA_PRES USA_SSHS USA_R34_NE USA_R34_SE USA_R34_SW USA_R34_NW USA_R50_NE USA_R50_SE USA_R50_SW USA_R50_NW USA_R64_NE USA_R64_SE USA_R64_SW USA_R64_NW USA_POCI USA_ROCI USA_RMW USA_EYE TOKYO_LAT TOKYO_LON TOKYO_GRADE TOKYO_WIND TOKYO_PRES TOKYO_R50_DIR TOKYO_R50_LONG TOKYO_R50_SHORT TOKYO_R30_DIR TOKYO_R30_LONG TOKYO_R30_SHORT TOKYO_LAND CMA_LAT CMA_LON CMA_CAT CMA_WIND CMA_PRES HKO_LAT HKO_LON HKO_CAT HKO_WIND HKO_PRES NEWDELHI_LAT NEWDELHI_LON NEWDELHI_GRADE NEWDELHI_WIND NEWDELHI_PRES NEWDELHI_CI NEWDELHI_DP NEWDELHI_POCI REUNION_LAT REUNION_LON REUNION_TYPE REUNION_WIND REUNION_PRES REUNION_TNUM REUNION_CI REUNION_RMW REUNION_R34_NE REUNION_R34_SE REUNION_R34_SW REUNION_R34_NW REUNION_R50_NE REUNION_R50_SE REUNION_R50_SW REUNION_R50_NW REUNION_R64_NE REUNION_R64_SE REUNION_R64_SW REUNION_R64_NW BOM_LAT BOM_LON BOM_TYPE BOM_WIND BOM_PRES BOM_TNUM BOM_CI BOM_RMW BOM_R34_NE BOM_R34_SE BOM_R34_SW BOM_R34_NW BOM_R50_NE BOM_R50_SE BOM_R50_SW BOM_R50_NW BOM_R64_NE BOM_R64_SE BOM_R64_SW BOM_R64_NW BOM_ROCI BOM_POCI BOM_EYE BOM_POS_METHOD BOM_PRES_METHOD NADI_LAT NADI_LON NADI_CAT NADI_WIND NADI_PRES WELLINGTON_LAT WELLINGTON_LON WELLINGTON_WIND WELLINGTON_PRES DS824_LAT DS824_LON DS824_STAGE DS824_WIND DS824_PRES TD9636_LAT TD9636_LON TD9636_STAGE TD9636_WIND TD9636_PRES TD9635_LAT TD9635_LON TD9635_WIND TD9635_PRES TD9635_ROCI NEUMANN_LAT NEUMANN_LON NEUMANN_CLASS NEUMANN_WIND NEUMANN_PRES MLC_LAT MLC_LON MLC_CLASS MLC_WIND MLC_PRES USA_GUST BOM_GUST BOM_GUST_PER REUNION_GUST REUNION_GUST_PER USA_SEAHGT USA_SEARAD_NE USA_SEARAD_SE USA_SEARAD_SW USA_SEARAD_NW STORM_SPEED STORM_DIR
1865011S14058 1865 2 SI MM NOT_NAMED 1865-01-11 06:00:00 NR -13.8000 58.2000 reunion main 707 706 _____O________ -1 -13.8000 58.2000 99 9.90000 2 250
1865011S14058 1865 2 SI MM NOT_NAMED 1865-01-11 09:00:00 NR -13.8375 58.0918 main 706 694 _____P________ -1 -13.8375 58.0918 99 2 251
1865011S14058 1865 2 SI MM NOT_NAMED 1865-01-11 12:00:00 NR -13.8762 57.9784 main 694 694 _____P________ -1 -13.8762 57.9784 99 2 251
1865011S14058 1865 2 SI MM NOT_NAMED 1865-01-11 15:00:00 NR -13.9172 57.8547 main 694 682 _____P________ -1 -13.9172 57.8547 99 3 252
1865011S14058 1865 2 SI MM NOT_NAMED 1865-01-11 18:00:00 NR -13.9619 57.7155 main 682 682 _____P________ -1 -13.9619 57.7155 99 3 252
1865011S14058 1865 2 SI MM NOT_NAMED 1865-01-11 21:00:00 NR -14.0113 57.5556 main 682 671 _____P________ -1 -14.0113 57.5556 99 4 253
1865011S14058 1865 2 SI MM NOT_NAMED 1865-01-12 00:00:00 NR -14.0667 57.3698 main 671 671 _____P________ -1 -14.0667 57.3698 99 4 253
1865011S14058 1865 2 SI MM NOT_NAMED 1865-01-12 03:00:00 NR -14.1293 57.1530 main 672 661 _____P________ -1 -14.1293 57.1530 99 5 254
1865011S14058 1865 2 SI MM NOT_NAMED 1865-01-12 06:00:00 NR -14.2000 56.9000 reunion main 663 654 _____O________ -1 -14.2000 56.9000 99 9.90000 6 254
1865011S14058 1865 2 SI MM NOT_NAMED 1865-01-12 09:00:00 NR -14.2801 56.6072 main 656 630 _____P________ -1 -14.2801 56.6072 99 6 254
1865011S14058 1865 2 SI MM NOT_NAMED 1865-01-12 12:00:00 NR -14.3706 56.2777 main 630 585 _____P________ -1 -14.3706 56.2777 99 7 254
1865011S14058 1865 2 SI MM NOT_NAMED 1865-01-12 15:00:00 NR -14.4728 55.9163 main 585 552 _____P________ -1 -14.4728 55.9163 99 8 253
1865011S14058 1865 2 SI MM NOT_NAMED 1865-01-12 18:00:00 NR -14.5877 55.5280 main 541 497 _____P________ -1 -14.5877 55.5280 99 8 252
1865011S14058 1865 2 SI MM NOT_NAMED 1865-01-12 21:00:00 NR -14.7167 55.1175 main 497 452 _____P________ -1 -14.7167 55.1175 99 9 251
1865011S14058 1865 2 SI MM NOT_NAMED 1865-01-13 00:00:00 NR -14.8609 54.6895 main 452 408 _____P________ -1 -14.8609 54.6895 99 9 250
1865011S14058 1865 2 SI MM NOT_NAMED 1865-01-13 03:00:00 NR -15.0215 54.2487 main 398 354 _____P________ -1 -15.0215 54.2487 99 9 248
1865011S14058 1865 2 SI MM NOT_NAMED 1865-01-13 06:00:00 NR -15.2000 53.8000 reunion main 354 300 _____O________ -1 -15.2000 53.8000 99 9.90000 10 246
1865011S14058 1865 2 SI MM NOT_NAMED 1865-01-13 09:00:00 NR -15.4236 53.3120 main 300 248 _____P________ -1 -15.4236 53.3120 99 11 244
1865011S14058 1865 2 SI MM NOT_NAMED 1865-01-13 12:00:00 NR -15.6695 52.8043 main 248 200 _____P________ -1 -15.6695 52.8043 99 11 243
1865011S14058 1865 2 SI MM NOT_NAMED 1865-01-13 15:00:00 NR -15.9284 52.2901 main 200 164 _____P________ -1 -15.9284 52.2901 99 11 242
1865011S14058 1865 2 SI MM NOT_NAMED 1865-01-13 18:00:00 NR -16.1911 51.7830 main 164 125 _____P________ -1 -16.1911 51.7830 99 11 241
1865011S14058 1865 2 SI MM NOT_NAMED 1865-01-13 21:00:00 NR -16.4485 51.2966 main 125 100 _____P________ -1 -16.4485 51.2966 99 10 241
1865011S14058 1865 2 SI MM NOT_NAMED 1865-01-14 00:00:00 NR -16.6917 50.8446 main 101 75 _____P________ -1 -16.6917 50.8446 99 9 241
1865011S14058 1865 2 SI MM NOT_NAMED 1865-01-14 03:00:00 NR -16.9118 50.4411 main 64 46 _____P________ -1 -16.9118 50.4411 99 8 240
1865011S14058 1865 2 SI MM NOT_NAMED 1865-01-14 06:00:00 NR -17.1000 50.1000 reunion main 46 38 _____O________ -1 -17.1000 50.1000 99 9.90000 7 240
1865011S14058 1865 2 SI MM NOT_NAMED 1865-01-14 09:00:00 NR -17.2501 49.8316 main 42 21 _____P________ -1 -17.2501 49.8316 99 5 239
1865011S14058 1865 2 SI MM NOT_NAMED 1865-01-14 12:00:00 NR -17.3649 49.6303 main 21 10 _____P________ -1 -17.3649 49.6303 99 4 239
1865011S14058 1865 2 SI MM NOT_NAMED 1865-01-14 15:00:00 NR -17.4497 49.4868 main 10 0 _____P________ -1 -17.4497 49.4868 99 3 237
1865011S14058 1865 2 SI MM NOT_NAMED 1865-01-14 18:00:00 NR -17.5096 49.3915 main 0 0 _____P________ -1 -17.5096 49.3915 99 2 235
1865011S14058 1865 2 SI MM NOT_NAMED 1865-01-14 21:00:00 NR -17.5495 49.3348 main 0 0 _____P________ -1 -17.5495 49.3348 99 1 232
1865011S14058 1865 2 SI MM NOT_NAMED 1865-01-15 00:00:00 NR -17.5746 49.3071 main 0 0 _____P________ -1 -17.5746 49.3071 99 1 224
1865011S14058 1865 2 SI MM NOT_NAMED 1865-01-15 03:00:00 NR -17.5898 49.2987 main 0 0 _____P________ -1 -17.5898 49.2987 99 0 0
1865011S14058 1865 2 SI MM NOT_NAMED 1865-01-15 06:00:00 NR -17.6000 49.3000 reunion main 0 _____O________ -1 -17.6000 49.3000 99 9.90000 0 0

About IBTrACS Database

This database is a web-friendly format of International Best Track Archive for Climate Stewardship (IBTrACS), a global best track data archive curated by NOAA dating back to 1842.

Updated: 2021-12-01